Agana Heights, GU

6:28 AM ChST on September 02, 2014 (GMT +1000)
Maite | Change Station
CLOSE
Current Station
Personal Weather Station
Location: Maite, GU
Elevation: 140 ft
Nearby Weather Stations

Elev 140 ft 13.48 °N, 144.76 °E | Updated 1 second ago

Clear
Clear
79.2 °F
Feels Like 84 °F
N
3.0
Wind Variable Wind from SSE
Gusts 5.0 mph

Today
High -- | Low -- °F
--% Chance of Precip.
Yesterday
High -- | Low -- °F
Precip. -- in
6:09 AM 6:31 PM
Waxing Crescent, 44% visible
Pressure 29.77 in
Visibility 10.0 miles
Clouds Clear
Heat Index 84 °F
Dew Point 77 °F
Humidity 92%
Rainfall 0.00 in
Snow Depth Not available.
UV 0.0 out of 12
Pollen Not available.
Air Quality Not available.
Flu Activity Not available.
METAR PGUM 011954Z 00000KT 10SM CLR 26/24 A2979 RMK AO2 SLP081 T02610244

More Conditions Fewer Conditions

Pressure 29.77 in
Visibility 10.0 miles
Clouds Clear
Heat Index 84 °F
Dew Point 77 °F
Humidity 92%
Rainfall 0.00 in
Snow Depth Not available.
UV 0.0 out of 12
Pollen Not available.
Air Quality Not available.
Flu Activity Not available.
METAR PGUM 011954Z 00000KT 10SM CLR 26/24 A2979 RMK AO2 SLP081 T02610244

More Conditions Fewer Conditions

10-Day Weather Forecast

Almanac

Astronomy

Sep. 02, 2014 Rise Set
Actual Time 6:09 AM ChST 6:31 PM ChST
Civil Twilight 5:48 AM ChST 6:53 PM ChST
Nautical Twilight 5:23 AM ChST 7:18 PM ChST
Astronomical Twilight 4:57 AM ChST 7:43 PM ChST
Moon 12:09 PM ChST (9/2) 11:58 PM ChST (9/2)
Length of Visible Light 13h 05m
Length of Day
12h 22m
Tomorrow will be 0m 43s shorter.
Waxing Crescent, 44% of the Moon is Illuminated
Sep 1
Waxing Crescent
Sep 2
First Quarter
Sep 8
Full
Sep 15
Last Quarter
Sep 24
New

Community

WunderPhotos

Upload Photos

1,749,397 photos uploaded!

WunderBlogs® & News

Nearby

Snow Depth

Station Depth Elevation
No new snow has been reported.

Earthquake Activity

City Distance Mag. Time & Date
No recent earthquake activity has been reported nearby.
Minimum magnitude displayed is 2.5.

Coastal Water Temperatures

Place Temperature
No Stations Reporting

Nearby Weather Stations